sensor_id;sensor_type;location;lat;lon;timestamp;P1;durP1;ratioP1;P2;durP2;ratioP2
51228;SDS011;37304;52.216;6.874;2023-07-02T00:03:12;3.87;;;1.60;;
51228;SDS011;37304;52.216;6.874;2023-07-02T00:08:12;2.07;;;1.67;;
51228;SDS011;37304;52.216;6.874;2023-07-02T00:13:13;3.20;;;1.70;;
51228;SDS011;37304;52.216;6.874;2023-07-02T00:18:15;2.00;;;1.80;;
51228;SDS011;37304;52.216;6.874;2023-07-02T00:23:16;3.05;;;1.85;;
51228;SDS011;37304;52.216;6.874;2023-07-02T00:28:16;3.03;;;1.63;;
51228;SDS011;37304;52.216;6.874;2023-07-02T00:33:17;6.78;;;1.90;;
51228;SDS011;37304;52.216;6.874;2023-07-02T00:38:18;4.37;;;1.93;;
51228;SDS011;37304;52.216;6.874;2023-07-02T00:43:18;2.17;;;1.90;;
51228;SDS011;37304;52.216;6.874;2023-07-02T00:48:18;3.47;;;2.00;;
51228;SDS011;37304;52.216;6.874;2023-07-02T00:53:19;4.20;;;2.30;;
51228;SDS011;37304;52.216;6.874;2023-07-02T00:58:19;3.23;;;1.90;;
51228;SDS011;37304;52.216;6.874;2023-07-02T01:03:21;4.47;;;1.95;;
51228;SDS011;37304;52.216;6.874;2023-07-02T01:08:21;3.77;;;2.07;;
51228;SDS011;37304;52.216;6.874;2023-07-02T01:13:22;3.38;;;2.20;;
51228;SDS011;37304;52.216;6.874;2023-07-02T01:18:24;7.97;;;3.10;;
51228;SDS011;37304;52.216;6.874;2023-07-02T01:23:25;44.42;;;6.30;;
51228;SDS011;37304;52.216;6.874;2023-07-02T01:28:27;10.60;;;3.70;;
51228;SDS011;37304;52.216;6.874;2023-07-02T01:33:35;9.25;;;3.22;;
51228;SDS011;37304;52.216;6.874;2023-07-02T01:38:35;6.43;;;3.07;;
51228;SDS011;37304;52.216;6.874;2023-07-02T01:43:35;5.40;;;3.10;;
51228;SDS011;37304;52.216;6.874;2023-07-02T01:48:36;7.67;;;3.17;;
51228;SDS011;37304;52.216;6.874;2023-07-02T01:53:36;12.83;;;3.53;;
51228;SDS011;37304;52.216;6.874;2023-07-02T01:58:36;8.30;;;3.20;;
51228;SDS011;37304;52.216;6.874;2023-07-02T02:03:37;8.43;;;3.53;;
51228;SDS011;37304;52.216;6.874;2023-07-02T02:08:37;6.10;;;2.67;;
51228;SDS011;37304;52.216;6.874;2023-07-02T02:13:37;9.73;;;3.43;;
51228;SDS011;37304;52.216;6.874;2023-07-02T02:18:38;9.80;;;3.67;;
51228;SDS011;37304;52.216;6.874;2023-07-02T02:23:38;10.90;;;3.17;;
51228;SDS011;37304;52.216;6.874;2023-07-02T02:28:39;8.33;;;3.40;;
51228;SDS011;37304;52.216;6.874;2023-07-02T02:33:40;8.07;;;4.13;;
51228;SDS011;37304;52.216;6.874;2023-07-02T02:38:40;7.00;;;3.53;;
51228;SDS011;37304;52.216;6.874;2023-07-02T02:43:41;7.17;;;3.20;;
51228;SDS011;37304;52.216;6.874;2023-07-02T02:48:42;8.50;;;3.60;;
51228;SDS011;37304;52.216;6.874;2023-07-02T02:53:43;14.87;;;3.87;;
51228;SDS011;37304;52.216;6.874;2023-07-02T02:58:43;6.23;;;3.57;;
51228;SDS011;37304;52.216;6.874;2023-07-02T03:03:44;9.30;;;3.72;;
51228;SDS011;37304;52.216;6.874;2023-07-02T03:08:47;10.30;;;3.85;;
51228;SDS011;37304;52.216;6.874;2023-07-02T03:13:48;14.27;;;4.00;;
51228;SDS011;37304;52.216;6.874;2023-07-02T03:18:48;7.93;;;3.70;;
51228;SDS011;37304;52.216;6.874;2023-07-02T03:23:49;15.63;;;3.47;;
51228;SDS011;37304;52.216;6.874;2023-07-02T03:28:49;8.33;;;3.63;;
51228;SDS011;37304;52.216;6.874;2023-07-02T03:33:50;7.80;;;3.58;;
51228;SDS011;37304;52.216;6.874;2023-07-02T03:38:50;9.57;;;3.70;;
51228;SDS011;37304;52.216;6.874;2023-07-02T03:43:51;10.93;;;3.83;;
51228;SDS011;37304;52.216;6.874;2023-07-02T03:48:51;10.03;;;3.73;;
51228;SDS011;37304;52.216;6.874;2023-07-02T03:53:52;17.33;;;4.43;;
51228;SDS011;37304;52.216;6.874;2023-07-02T03:58:52;9.70;;;3.53;;
51228;SDS011;37304;52.216;6.874;2023-07-02T04:03:53;10.60;;;3.90;;
51228;SDS011;37304;52.216;6.874;2023-07-02T04:08:54;8.95;;;3.45;;
51228;SDS011;37304;52.216;6.874;2023-07-02T04:13:54;9.97;;;3.37;;
51228;SDS011;37304;52.216;6.874;2023-07-02T04:18:55;8.97;;;4.17;;
51228;SDS011;37304;52.216;6.874;2023-07-02T04:23:55;7.67;;;3.87;;
51228;SDS011;37304;52.216;6.874;2023-07-02T04:28:56;8.25;;;3.53;;
51228;SDS011;37304;52.216;6.874;2023-07-02T04:33:56;9.43;;;3.33;;
51228;SDS011;37304;52.216;6.874;2023-07-02T04:38:57;14.10;;;3.90;;
51228;SDS011;37304;52.216;6.874;2023-07-02T04:43:57;11.03;;;3.90;;
51228;SDS011;37304;52.216;6.874;2023-07-02T04:48:57;11.93;;;4.30;;
51228;SDS011;37304;52.216;6.874;2023-07-02T04:53:58;11.17;;;3.73;;
51228;SDS011;37304;52.216;6.874;2023-07-02T04:58:58;12.13;;;3.60;;
51228;SDS011;37304;52.216;6.874;2023-07-02T05:03:59;11.83;;;3.90;;
51228;SDS011;37304;52.216;6.874;2023-07-02T05:08:59;11.70;;;4.30;;
51228;SDS011;37304;52.216;6.874;2023-07-02T05:13:59;11.07;;;3.33;;
51228;SDS011;37304;52.216;6.874;2023-07-02T05:19:00;16.03;;;4.23;;
51228;SDS011;37304;52.216;6.874;2023-07-02T05:24:00;11.57;;;3.77;;
51228;SDS011;37304;52.216;6.874;2023-07-02T05:29:01;9.65;;;3.65;;
51228;SDS011;37304;52.216;6.874;2023-07-02T05:34:02;18.48;;;4.93;;
51228;SDS011;37304;52.216;6.874;2023-07-02T05:39:02;17.40;;;4.30;;
51228;SDS011;37304;52.216;6.874;2023-07-02T05:44:03;8.67;;;3.67;;
51228;SDS011;37304;52.216;6.874;2023-07-02T05:49:03;9.38;;;3.70;;
51228;SDS011;37304;52.216;6.874;2023-07-02T05:54:06;14.23;;;3.42;;
51228;SDS011;37304;52.216;6.874;2023-07-02T05:59:09;12.82;;;3.85;;
51228;SDS011;37304;52.216;6.874;2023-07-02T06:04:11;12.02;;;3.67;;
51228;SDS011;37304;52.216;6.874;2023-07-02T06:09:11;12.60;;;3.93;;
51228;SDS011;37304;52.216;6.874;2023-07-02T06:14:11;16.07;;;4.13;;
51228;SDS011;37304;52.216;6.874;2023-07-02T06:19:12;15.23;;;3.67;;
51228;SDS011;37304;52.216;6.874;2023-07-02T06:24:12;11.30;;;3.60;;
51228;SDS011;37304;52.216;6.874;2023-07-02T06:29:13;16.03;;;3.83;;
51228;SDS011;37304;52.216;6.874;2023-07-02T06:34:13;16.40;;;3.93;;
51228;SDS011;37304;52.216;6.874;2023-07-02T06:39:14;16.02;;;4.75;;
51228;SDS011;37304;52.216;6.874;2023-07-02T06:44:14;12.00;;;3.63;;
51228;SDS011;37304;52.216;6.874;2023-07-02T06:49:15;8.33;;;3.60;;
51228;SDS011;37304;52.216;6.874;2023-07-02T06:54:15;11.73;;;3.40;;
51228;SDS011;37304;52.216;6.874;2023-07-02T06:59:22;10.17;;;4.37;;
51228;SDS011;37304;52.216;6.874;2023-07-02T07:04:23;9.65;;;3.95;;
51228;SDS011;37304;52.216;6.874;2023-07-02T07:09:23;13.87;;;3.43;;
51228;SDS011;37304;52.216;6.874;2023-07-02T07:14:24;11.37;;;3.20;;
51228;SDS011;37304;52.216;6.874;2023-07-02T07:19:24;11.50;;;3.77;;
51228;SDS011;37304;52.216;6.874;2023-07-02T07:24:24;17.10;;;4.23;;
51228;SDS011;37304;52.216;6.874;2023-07-02T07:29:25;12.57;;;3.40;;
51228;SDS011;37304;52.216;6.874;2023-07-02T07:34:25;13.20;;;4.30;;
51228;SDS011;37304;52.216;6.874;2023-07-02T07:39:25;7.40;;;3.67;;
51228;SDS011;37304;52.216;6.874;2023-07-02T07:44:26;12.10;;;3.07;;
51228;SDS011;37304;52.216;6.874;2023-07-02T07:49:28;11.40;;;3.50;;
51228;SDS011;37304;52.216;6.874;2023-07-02T07:54:29;10.43;;;3.17;;
51228;SDS011;37304;52.216;6.874;2023-07-02T07:59:29;7.87;;;3.00;;
51228;SDS011;37304;52.216;6.874;2023-07-02T08:04:30;11.55;;;3.28;;
51228;SDS011;37304;52.216;6.874;2023-07-02T08:09:30;15.90;;;3.57;;
51228;SDS011;37304;52.216;6.874;2023-07-02T08:14:30;19.43;;;4.00;;
51228;SDS011;37304;52.216;6.874;2023-07-02T08:19:31;10.87;;;3.10;;
51228;SDS011;37304;52.216;6.874;2023-07-02T08:24:31;8.00;;;2.73;;
51228;SDS011;37304;52.216;6.874;2023-07-02T08:29:32;12.20;;;3.50;;
51228;SDS011;37304;52.216;6.874;2023-07-02T08:34:32;11.82;;;3.40;;
51228;SDS011;37304;52.216;6.874;2023-07-02T08:39:33;8.83;;;3.23;;
51228;SDS011;37304;52.216;6.874;2023-07-02T08:44:35;12.50;;;3.65;;
51228;SDS011;37304;52.216;6.874;2023-07-02T08:49:36;8.63;;;3.22;;
51228;SDS011;37304;52.216;6.874;2023-07-02T08:54:36;16.10;;;3.40;;
51228;SDS011;37304;52.216;6.874;2023-07-02T08:59:37;10.80;;;2.70;;
51228;SDS011;37304;52.216;6.874;2023-07-02T09:04:37;10.90;;;3.37;;
51228;SDS011;37304;52.216;6.874;2023-07-02T09:09:48;9.03;;;3.30;;
51228;SDS011;37304;52.216;6.874;2023-07-02T09:20:01;10.85;;;3.38;;
51228;SDS011;37304;52.216;6.874;2023-07-02T09:25:05;6.78;;;2.55;;
51228;SDS011;37304;52.216;6.874;2023-07-02T09:30:06;9.85;;;3.50;;
51228;SDS011;37304;52.216;6.874;2023-07-02T09:35:07;10.07;;;3.38;;
51228;SDS011;37304;52.216;6.874;2023-07-02T09:40:07;6.80;;;3.20;;
51228;SDS011;37304;52.216;6.874;2023-07-02T09:45:09;11.75;;;3.13;;
51228;SDS011;37304;52.216;6.874;2023-07-02T09:50:10;9.23;;;3.10;;
51228;SDS011;37304;52.216;6.874;2023-07-02T09:55:14;7.68;;;2.22;;
51228;SDS011;37304;52.216;6.874;2023-07-02T10:00:15;3.83;;;2.58;;
51228;SDS011;37304;52.216;6.874;2023-07-02T10:05:30;8.45;;;2.70;;
51228;SDS011;37304;52.216;6.874;2023-07-02T10:10:32;7.28;;;3.10;;
51228;SDS011;37304;52.216;6.874;2023-07-02T10:15:32;10.47;;;2.73;;
51228;SDS011;37304;52.216;6.874;2023-07-02T10:20:38;7.50;;;2.47;;
51228;SDS011;37304;52.216;6.874;2023-07-02T10:25:40;5.80;;;2.30;;
51228;SDS011;37304;52.216;6.874;2023-07-02T10:30:42;5.78;;;2.72;;
51228;SDS011;37304;52.216;6.874;2023-07-02T10:35:43;8.25;;;2.30;;
51228;SDS011;37304;52.216;6.874;2023-07-02T10:40:47;8.90;;;2.40;;
51228;SDS011;37304;52.216;6.874;2023-07-02T10:45:55;9.35;;;2.60;;
51228;SDS011;37304;52.216;6.874;2023-07-02T10:50:56;4.90;;;2.40;;
51228;SDS011;37304;52.216;6.874;2023-07-02T10:55:57;5.57;;;2.45;;
51228;SDS011;37304;52.216;6.874;2023-07-02T11:00:57;6.32;;;2.42;;
51228;SDS011;37304;52.216;6.874;2023-07-02T11:05:58;6.25;;;2.63;;
51228;SDS011;37304;52.216;6.874;2023-07-02T11:11:06;6.77;;;2.33;;
51228;SDS011;37304;52.216;6.874;2023-07-02T11:16:16;5.50;;;2.33;;
51228;SDS011;37304;52.216;6.874;2023-07-02T11:21:22;10.20;;;2.92;;
51228;SDS011;37304;52.216;6.874;2023-07-02T11:26:23;8.53;;;2.77;;
51228;SDS011;37304;52.216;6.874;2023-07-02T11:31:26;8.73;;;2.07;;
51228;SDS011;37304;52.216;6.874;2023-07-02T11:36:27;4.80;;;2.40;;
51228;SDS011;37304;52.216;6.874;2023-07-02T11:41:35;4.90;;;1.93;;
51228;SDS011;37304;52.216;6.874;2023-07-02T11:46:39;6.97;;;2.08;;
51228;SDS011;37304;52.216;6.874;2023-07-02T11:51:40;4.37;;;1.80;;
51228;SDS011;37304;52.216;6.874;2023-07-02T11:56:46;6.00;;;1.95;;
51228;SDS011;37304;52.216;6.874;2023-07-02T12:01:47;4.55;;;1.80;;
51228;SDS011;37304;52.216;6.874;2023-07-02T12:06:48;3.87;;;2.03;;
51228;SDS011;37304;52.216;6.874;2023-07-02T12:11:48;5.80;;;1.57;;
51228;SDS011;37304;52.216;6.874;2023-07-02T12:16:49;6.53;;;2.13;;
51228;SDS011;37304;52.216;6.874;2023-07-02T12:21:49;4.73;;;1.70;;
51228;SDS011;37304;52.216;6.874;2023-07-02T12:26:49;7.20;;;1.70;;
51228;SDS011;37304;52.216;6.874;2023-07-02T12:31:50;3.37;;;1.63;;
51228;SDS011;37304;52.216;6.874;2023-07-02T12:36:50;5.37;;;1.70;;
51228;SDS011;37304;52.216;6.874;2023-07-02T12:41:50;6.47;;;2.03;;
51228;SDS011;37304;52.216;6.874;2023-07-02T12:46:51;7.32;;;2.10;;
51228;SDS011;37304;52.216;6.874;2023-07-02T12:51:51;5.43;;;1.90;;
51228;SDS011;37304;52.216;6.874;2023-07-02T12:56:51;4.10;;;1.80;;
51228;SDS011;37304;52.216;6.874;2023-07-02T13:01:52;4.47;;;1.60;;
51228;SDS011;37304;52.216;6.874;2023-07-02T13:06:52;4.20;;;1.90;;
51228;SDS011;37304;52.216;6.874;2023-07-02T13:11:52;6.83;;;2.00;;
51228;SDS011;37304;52.216;6.874;2023-07-02T13:16:53;5.50;;;1.90;;
51228;SDS011;37304;52.216;6.874;2023-07-02T13:21:53;5.73;;;1.80;;
51228;SDS011;37304;52.216;6.874;2023-07-02T13:26:53;5.03;;;2.30;;
51228;SDS011;37304;52.216;6.874;2023-07-02T13:31:54;5.00;;;1.80;;
51228;SDS011;37304;52.216;6.874;2023-07-02T13:36:54;4.23;;;1.90;;
51228;SDS011;37304;52.216;6.874;2023-07-02T13:41:54;4.77;;;1.90;;
51228;SDS011;37304;52.216;6.874;2023-07-02T13:46:55;4.47;;;1.57;;
51228;SDS011;37304;52.216;6.874;2023-07-02T13:51:55;9.87;;;2.10;;
51228;SDS011;37304;52.216;6.874;2023-07-02T13:56:56;4.27;;;1.87;;
51228;SDS011;37304;52.216;6.874;2023-07-02T14:01:57;4.03;;;1.88;;
51228;SDS011;37304;52.216;6.874;2023-07-02T14:06:57;5.73;;;2.13;;
51228;SDS011;37304;52.216;6.874;2023-07-02T14:11:58;4.13;;;1.93;;
51228;SDS011;37304;52.216;6.874;2023-07-02T14:16:58;6.47;;;1.93;;
51228;SDS011;37304;52.216;6.874;2023-07-02T14:21:58;5.67;;;2.20;;
51228;SDS011;37304;52.216;6.874;2023-07-02T14:26:59;3.83;;;1.73;;
51228;SDS011;37304;52.216;6.874;2023-07-02T14:31:59;6.83;;;2.13;;
51228;SDS011;37304;52.216;6.874;2023-07-02T14:36:59;4.23;;;1.63;;
51228;SDS011;37304;52.216;6.874;2023-07-02T14:42:02;6.18;;;2.53;;
51228;SDS011;37304;52.216;6.874;2023-07-02T14:47:03;5.05;;;1.73;;
51228;SDS011;37304;52.216;6.874;2023-07-02T14:52:03;5.15;;;1.90;;
51228;SDS011;37304;52.216;6.874;2023-07-02T14:57:04;3.30;;;2.08;;
51228;SDS011;37304;52.216;6.874;2023-07-02T15:02:05;7.10;;;1.90;;
51228;SDS011;37304;52.216;6.874;2023-07-02T15:07:05;4.03;;;1.83;;
51228;SDS011;37304;52.216;6.874;2023-07-02T15:12:06;5.80;;;2.30;;
51228;SDS011;37304;52.216;6.874;2023-07-02T15:17:06;5.10;;;2.00;;
51228;SDS011;37304;52.216;6.874;2023-07-02T15:22:07;6.97;;;2.47;;
51228;SDS011;37304;52.216;6.874;2023-07-02T15:27:07;7.23;;;2.50;;
51228;SDS011;37304;52.216;6.874;2023-07-02T15:32:08;4.25;;;1.90;;
51228;SDS011;37304;52.216;6.874;2023-07-02T15:37:08;5.30;;;2.23;;
51228;SDS011;37304;52.216;6.874;2023-07-02T15:42:08;4.30;;;2.23;;
51228;SDS011;37304;52.216;6.874;2023-07-02T15:47:09;3.77;;;1.73;;
51228;SDS011;37304;52.216;6.874;2023-07-02T15:52:09;4.07;;;2.10;;
51228;SDS011;37304;52.216;6.874;2023-07-02T15:57:09;6.47;;;2.07;;
51228;SDS011;37304;52.216;6.874;2023-07-02T16:02:10;5.10;;;2.00;;
51228;SDS011;37304;52.216;6.874;2023-07-02T16:07:11;5.63;;;2.63;;
51228;SDS011;37304;52.216;6.874;2023-07-02T16:12:12;5.78;;;2.20;;
51228;SDS011;37304;52.216;6.874;2023-07-02T16:17:12;6.37;;;1.80;;
51228;SDS011;37304;52.216;6.874;2023-07-02T16:22:13;6.03;;;2.33;;
51228;SDS011;37304;52.216;6.874;2023-07-02T16:27:13;7.23;;;2.30;;
51228;SDS011;37304;52.216;6.874;2023-07-02T16:32:13;6.67;;;1.50;;
51228;SDS011;37304;52.216;6.874;2023-07-02T16:37:14;5.97;;;2.20;;
51228;SDS011;37304;52.216;6.874;2023-07-02T16:42:14;6.17;;;2.00;;
51228;SDS011;37304;52.216;6.874;2023-07-02T16:47:15;6.63;;;2.30;;
51228;SDS011;37304;52.216;6.874;2023-07-02T16:52:15;5.90;;;2.67;;
51228;SDS011;37304;52.216;6.874;2023-07-02T16:57:15;8.27;;;2.23;;
51228;SDS011;37304;52.216;6.874;2023-07-02T17:02:16;6.07;;;2.70;;
51228;SDS011;37304;52.216;6.874;2023-07-02T17:07:16;6.00;;;2.07;;
51228;SDS011;37304;52.216;6.874;2023-07-02T17:12:18;6.90;;;2.30;;
51228;SDS011;37304;52.216;6.874;2023-07-02T17:17:20;6.80;;;2.38;;
51228;SDS011;37304;52.216;6.874;2023-07-02T17:22:30;4.93;;;2.10;;
51228;SDS011;37304;52.216;6.874;2023-07-02T17:27:31;5.05;;;2.00;;
51228;SDS011;37304;52.216;6.874;2023-07-02T17:32:32;5.68;;;2.13;;
51228;SDS011;37304;52.216;6.874;2023-07-02T17:37:32;5.70;;;2.20;;
51228;SDS011;37304;52.216;6.874;2023-07-02T17:42:33;5.97;;;2.30;;
51228;SDS011;37304;52.216;6.874;2023-07-02T17:47:34;15.30;;;2.60;;
51228;SDS011;37304;52.216;6.874;2023-07-02T17:52:36;5.38;;;2.25;;
51228;SDS011;37304;52.216;6.874;2023-07-02T17:57:37;4.67;;;1.97;;
51228;SDS011;37304;52.216;6.874;2023-07-02T18:02:38;6.38;;;2.30;;
51228;SDS011;37304;52.216;6.874;2023-07-02T18:07:39;4.18;;;1.90;;
51228;SDS011;37304;52.216;6.874;2023-07-02T18:12:39;5.87;;;1.73;;
51228;SDS011;37304;52.216;6.874;2023-07-02T18:17:40;5.93;;;2.17;;
51228;SDS011;37304;52.216;6.874;2023-07-02T18:22:40;5.60;;;2.10;;
51228;SDS011;37304;52.216;6.874;2023-07-02T18:27:40;6.87;;;1.90;;
51228;SDS011;37304;52.216;6.874;2023-07-02T18:32:41;4.83;;;1.93;;
51228;SDS011;37304;52.216;6.874;2023-07-02T18:37:41;5.33;;;2.10;;
51228;SDS011;37304;52.216;6.874;2023-07-02T18:42:42;5.30;;;1.83;;
51228;SDS011;37304;52.216;6.874;2023-07-02T18:47:42;5.87;;;2.00;;
51228;SDS011;37304;52.216;6.874;2023-07-02T18:52:44;4.97;;;2.00;;
51228;SDS011;37304;52.216;6.874;2023-07-02T18:57:45;4.88;;;2.00;;
51228;SDS011;37304;52.216;6.874;2023-07-02T19:02:48;5.50;;;2.10;;
51228;SDS011;37304;52.216;6.874;2023-07-02T19:07:49;4.82;;;2.10;;
51228;SDS011;37304;52.216;6.874;2023-07-02T19:12:50;4.30;;;1.80;;
51228;SDS011;37304;52.216;6.874;2023-07-02T19:17:50;5.40;;;2.00;;
51228;SDS011;37304;52.216;6.874;2023-07-02T19:22:51;7.47;;;2.37;;
51228;SDS011;37304;52.216;6.874;2023-07-02T19:27:51;5.67;;;2.07;;
51228;SDS011;37304;52.216;6.874;2023-07-02T19:32:54;6.00;;;2.30;;
51228;SDS011;37304;52.216;6.874;2023-07-02T19:37:55;6.53;;;1.85;;
51228;SDS011;37304;52.216;6.874;2023-07-02T19:42:56;6.10;;;2.40;;
51228;SDS011;37304;52.216;6.874;2023-07-02T19:47:56;12.17;;;3.27;;
51228;SDS011;37304;52.216;6.874;2023-07-02T19:52:57;5.68;;;2.40;;
51228;SDS011;37304;52.216;6.874;2023-07-02T19:57:57;4.57;;;2.30;;
51228;SDS011;37304;52.216;6.874;2023-07-02T20:02:59;9.73;;;2.90;;
51228;SDS011;37304;52.216;6.874;2023-07-02T20:07:59;8.97;;;2.70;;
51228;SDS011;37304;52.216;6.874;2023-07-02T20:13:00;6.20;;;2.47;;
51228;SDS011;37304;52.216;6.874;2023-07-02T20:18:00;7.43;;;2.70;;
51228;SDS011;37304;52.216;6.874;2023-07-02T20:23:02;7.75;;;2.75;;
51228;SDS011;37304;52.216;6.874;2023-07-02T20:28:03;7.80;;;2.80;;
51228;SDS011;37304;52.216;6.874;2023-07-02T20:33:03;7.53;;;2.30;;
51228;SDS011;37304;52.216;6.874;2023-07-02T20:38:04;6.63;;;2.70;;
51228;SDS011;37304;52.216;6.874;2023-07-02T20:43:05;10.10;;;2.60;;
51228;SDS011;37304;52.216;6.874;2023-07-02T20:48:11;7.50;;;2.70;;
51228;SDS011;37304;52.216;6.874;2023-07-02T20:53:13;8.80;;;2.72;;
51228;SDS011;37304;52.216;6.874;2023-07-02T20:58:13;6.33;;;2.60;;
51228;SDS011;37304;52.216;6.874;2023-07-02T21:03:13;5.60;;;2.10;;
51228;SDS011;37304;52.216;6.874;2023-07-02T21:08:14;7.90;;;3.00;;
51228;SDS011;37304;52.216;6.874;2023-07-02T21:13:14;7.63;;;2.63;;
51228;SDS011;37304;52.216;6.874;2023-07-02T21:18:14;6.90;;;2.80;;
51228;SDS011;37304;52.216;6.874;2023-07-02T21:23:15;6.27;;;2.60;;
51228;SDS011;37304;52.216;6.874;2023-07-02T21:28:15;7.30;;;2.73;;
51228;SDS011;37304;52.216;6.874;2023-07-02T21:33:20;7.10;;;2.92;;
51228;SDS011;37304;52.216;6.874;2023-07-02T21:38:21;6.38;;;2.78;;
51228;SDS011;37304;52.216;6.874;2023-07-02T21:43:21;11.53;;;3.00;;
51228;SDS011;37304;52.216;6.874;2023-07-02T21:48:22;13.30;;;3.10;;
51228;SDS011;37304;52.216;6.874;2023-07-02T21:53:22;8.90;;;2.65;;
51228;SDS011;37304;52.216;6.874;2023-07-02T21:58:23;11.60;;;3.05;;
51228;SDS011;37304;52.216;6.874;2023-07-02T22:03:24;9.93;;;2.72;;
51228;SDS011;37304;52.216;6.874;2023-07-02T22:08:24;7.13;;;2.40;;
51228;SDS011;37304;52.216;6.874;2023-07-02T22:13:24;11.63;;;3.07;;
51228;SDS011;37304;52.216;6.874;2023-07-02T22:18:25;10.27;;;2.90;;
51228;SDS011;37304;52.216;6.874;2023-07-02T22:23:25;7.47;;;2.40;;
51228;SDS011;37304;52.216;6.874;2023-07-02T22:28:26;6.20;;;2.20;;
51228;SDS011;37304;52.216;6.874;2023-07-02T22:33:26;9.27;;;2.50;;
51228;SDS011;37304;52.216;6.874;2023-07-02T22:38:26;7.53;;;2.33;;
51228;SDS011;37304;52.216;6.874;2023-07-02T22:43:27;10.40;;;3.40;;
51228;SDS011;37304;52.216;6.874;2023-07-02T22:48:27;6.97;;;1.90;;
51228;SDS011;37304;52.216;6.874;2023-07-02T22:53:27;7.33;;;2.83;;
51228;SDS011;37304;52.216;6.874;2023-07-02T22:58:28;10.20;;;2.40;;
51228;SDS011;37304;52.216;6.874;2023-07-02T23:03:28;8.40;;;2.20;;
51228;SDS011;37304;52.216;6.874;2023-07-02T23:08:29;8.03;;;2.53;;
51228;SDS011;37304;52.216;6.874;2023-07-02T23:13:29;8.02;;;2.70;;
51228;SDS011;37304;52.216;6.874;2023-07-02T23:18:29;6.00;;;1.50;;
51228;SDS011;37304;52.216;6.874;2023-07-02T23:23:34;9.82;;;2.42;;
51228;SDS011;37304;52.216;6.874;2023-07-02T23:28:34;9.77;;;2.50;;
51228;SDS011;37304;52.216;6.874;2023-07-02T23:33:36;9.13;;;2.33;;
51228;SDS011;37304;52.216;6.874;2023-07-02T23:38:37;9.80;;;2.22;;
51228;SDS011;37304;52.216;6.874;2023-07-02T23:43:37;7.17;;;2.17;;
51228;SDS011;37304;52.216;6.874;2023-07-02T23:48:37;10.77;;;2.63;;
51228;SDS011;37304;52.216;6.874;2023-07-02T23:53:38;8.63;;;2.90;;
51228;SDS011;37304;52.216;6.874;2023-07-02T23:58:38;11.97;;;2.37;;
